Time;durP1;ratioP1;P1;durP2;ratioP2;P2;SDS_P1;SDS_P2;PMS_P1;PMS_P2;Temp;Humidity;BMP_temperature;BMP_pressure;BME280_temperature;BME280_humidity;BME280_pressure;Samples;Min_cycle;Max_cycle;Signal;HPM_P1;HPM_P2
2022/05/08 00:01:02;;;;;;;5.93;4.72;;;;;;;32.19;20.75;98703.91;5059646;28;20036;-77
2022/05/08 00:03:29;;;;;;;8.10;5.38;;;;;;;32.21;20.80;98703.47;5061044;28;20036;-77
2022/05/08 00:05:55;;;;;;;8.00;5.20;;;;;;;31.79;21.49;98703.25;5058469;28;20052;-77
2022/05/08 00:08:22;;;;;;;7.85;5.57;;;;;;;31.56;21.80;98698.19;5062164;28;20048;-77
2022/05/08 00:10:48;;;;;;;10.38;5.63;;;;;;;31.85;21.43;98707.84;5058220;28;20086;-77
2022/05/08 00:13:14;;;;;;;8.82;5.85;;;;;;;32.07;21.37;98699.97;5064086;28;20040;-77
2022/05/08 00:15:41;;;;;;;9.32;5.50;;;;;;;32.27;21.27;98696.66;5060272;28;20394;-77
2022/05/08 00:18:07;;;;;;;6.38;4.70;;;;;;;32.39;21.20;98704.22;5058021;28;21079;-77
2022/05/08 00:20:33;;;;;;;7.30;5.15;;;;;;;32.46;20.75;98694.56;5061344;28;20036;-78
2022/05/08 00:22:59;;;;;;;7.10;4.82;;;;;;;32.52;20.95;98692.69;5062233;28;20115;-77
2022/05/08 00:25:26;;;;;;;13.63;6.32;;;;;;;32.57;20.51;98692.03;5062666;28;20457;-77
2022/05/08 00:27:52;;;;;;;6.75;4.65;;;;;;;32.61;20.25;98692.66;5063249;28;20041;-77
2022/05/08 00:30:18;;;;;;;7.18;4.63;;;;;;;32.63;20.70;98688.06;5063291;28;20502;-77
2022/05/08 00:32:45;;;;;;;10.25;4.82;;;;;;;32.44;20.63;98686.50;5056396;28;20397;-77
2022/05/08 00:35:11;;;;;;;7.28;5.05;;;;;;;31.65;21.90;98684.03;5057448;28;20036;-77
2022/05/08 00:37:40;;;;;;;10.15;5.15;;;;;;;31.28;22.02;98675.41;5063322;28;20060;-77
2022/05/08 00:40:06;;;;;;;7.85;4.88;;;;;;;31.02;22.40;98676.88;5060714;28;20032;-77
2022/05/08 00:42:32;;;;;;;9.90;5.70;;;;;;;31.02;22.74;98679.72;5064601;28;20029;-77
2022/05/08 00:44:59;;;;;;;7.53;5.38;;;;;;;31.46;22.08;98677.50;5061778;28;20040;-77
2022/05/08 00:47:25;;;;;;;8.52;5.55;;;;;;;31.78;21.96;98681.81;5061289;28;20107;-77
2022/05/08 00:49:51;;;;;;;6.82;5.05;;;;;;;32.02;21.25;98675.03;5066131;28;20036;-77
2022/05/08 00:52:17;;;;;;;8.65;5.68;;;;;;;32.18;21.10;98673.16;5063096;28;20153;-77
2022/05/08 00:54:45;;;;;;;7.93;5.25;;;;;;;31.95;21.58;98672.50;5064862;28;20123;-77
2022/05/08 00:57:12;;;;;;;7.82;5.05;;;;;;;31.69;21.69;98673.28;5064943;28;20071;-77
2022/05/08 00:59:39;;;;;;;7.70;6.20;;;;;;;31.13;22.59;98674.44;5064601;28;20041;-77
2022/05/08 01:02:05;;;;;;;8.43;5.38;;;;;;;31.05;22.56;98672.31;5063341;28;20068;-77
2022/05/08 01:04:31;;;;;;;6.78;5.18;;;;;;;31.48;21.81;98677.06;5042926;28;20500;-77
2022/05/08 01:06:58;;;;;;;7.93;4.68;;;;;;;31.74;21.23;98689.72;5063145;28;20111;-77
2022/05/08 01:09:24;;;;;;;8.43;4.95;;;;;;;31.78;21.29;98679.78;5067598;28;20021;-78
2022/05/08 01:11:50;;;;;;;6.65;5.20;;;;;;;31.71;21.46;98674.41;5059023;28;20033;-78
2022/05/08 01:14:17;;;;;;;8.45;4.72;;;;;;;31.56;22.12;98679.09;5064654;28;20640;-77
2022/05/08 01:16:44;;;;;;;7.68;5.30;;;;;;;31.34;22.53;98679.19;5063132;28;20067;-78
2022/05/08 01:19:10;;;;;;;9.68;5.63;;;;;;;31.60;21.92;98676.13;5064994;28;20028;-78
2022/05/08 01:21:41;;;;;;;9.88;6.10;;;;;;;31.74;21.37;98684.78;5066974;28;20047;-78
2022/05/08 01:24:08;;;;;;;;;;;;;;;31.86;21.81;98681.03;5065281;28;20158;-78
2022/05/08 01:26:34;;;;;;;8.63;5.38;;;;;;;32.10;21.46;98681.19;5062234;28;19924;-78
2022/05/08 01:29:02;;;;;;;9.60;5.30;;;;;;;32.03;21.43;98679.47;5057307;28;20029;-78
2022/05/08 01:31:28;;;;;;;8.95;5.28;;;;;;;31.76;21.87;98684.34;5063776;28;20652;-77
2022/05/08 01:33:54;;;;;;;12.60;6.65;;;;;;;31.72;22.10;98686.53;5063081;28;20081;-77
2022/05/08 01:36:20;;;;;;;7.70;5.35;;;;;;;31.75;22.14;98694.91;5063668;28;20490;-77
2022/05/08 01:38:46;;;;;;;7.72;5.03;;;;;;;31.42;22.34;98682.50;5064968;28;20769;-77
2022/05/08 01:41:12;;;;;;;8.73;5.82;;;;;;;31.28;22.63;98685.94;5066274;28;20052;-78
2022/05/08 01:43:38;;;;;;;10.70;5.45;;;;;;;30.97;22.80;98685.25;5066951;28;20035;-77
2022/05/08 01:46:05;;;;;;;10.57;5.78;;;;;;;30.90;22.95;98677.78;5061050;28;20040;-77
2022/05/08 01:48:32;;;;;;;9.40;5.35;;;;;;;31.26;22.34;98685.63;5060308;28;20099;-78
2022/05/08 01:51:00;;;;;;;7.25;5.63;;;;;;;31.66;22.05;98686.38;5061834;28;20494;-77
2022/05/08 01:53:31;;;;;;;8.70;5.80;;;;;;;31.92;21.52;98684.81;5058254;28;20075;-77
2022/05/08 01:55:58;;;;;;;9.57;5.30;;;;;;;31.97;21.70;98677.75;5062638;28;20036;-78
2022/05/08 01:58:26;;;;;;;8.48;5.13;;;;;;;32.06;21.14;98681.38;5061277;28;20021;-77
2022/05/08 02:00:54;;;;;;;8.55;5.72;;;;;;;32.03;21.89;98681.53;5043907;28;20037;-77
2022/05/08 02:03:22;;;;;;;8.80;4.88;;;;;;;31.83;21.84;98687.66;5065219;28;20086;-77
2022/05/08 02:05:48;;;;;;;9.68;5.65;;;;;;;31.40;22.45;98685.84;5063901;28;20111;-77
2022/05/08 02:08:15;;;;;;;8.27;5.20;;;;;;;30.90;22.86;98683.47;5065910;28;20082;-77
2022/05/08 02:10:41;;;;;;;8.57;5.85;;;;;;;30.98;22.78;98683.97;5062893;28;20032;-77
2022/05/08 02:13:09;;;;;;;8.38;5.28;;;;;;;31.41;22.20;98675.28;5064672;28;20052;-77
2022/05/08 02:15:36;;;;;;;7.45;4.70;;;;;;;31.55;21.76;98683.22;5048162;28;20031;-77
2022/05/08 02:18:04;;;;;;;9.63;5.35;;;;;;;31.18;22.45;98673.03;5066058;28;20031;-77
2022/05/08 02:20:31;;;;;;;9.07;6.00;;;;;;;30.76;23.21;98684.00;5061236;28;20048;-77
2022/05/08 02:22:57;;;;;;;7.57;5.80;;;;;;;30.76;22.97;98676.28;5061338;28;20543;-76
2022/05/08 02:25:23;;;;;;;7.47;5.50;;;;;;;30.82;22.91;98672.84;5065558;28;20040;-77
2022/05/08 02:27:51;;;;;;;8.07;5.70;;;;;;;30.95;23.28;98670.75;5066867;28;20028;-77
2022/05/08 02:30:20;;;;;;;7.85;4.53;;;;;;;30.82;23.00;98667.97;5063085;28;20077;-77
2022/05/08 02:32:47;;;;;;;7.93;5.70;;;;;;;30.61;23.45;98677.31;5059264;28;20044;-77
2022/05/08 02:35:13;;;;;;;7.15;5.15;;;;;;;30.78;23.36;98675.84;5044741;28;20035;-77
2022/05/08 02:37:40;;;;;;;6.07;4.80;;;;;;;30.85;22.86;98680.44;5044838;28;20040;-77
2022/05/08 02:40:08;;;;;;;7.07;5.53;;;;;;;30.98;23.04;98678.28;5065970;28;20431;-77
2022/05/08 02:42:36;;;;;;;5.93;4.78;;;;;;;31.08;22.90;98686.38;5064902;28;20085;-77
2022/05/08 02:45:03;;;;;;;8.88;4.53;;;;;;;31.08;22.89;98682.75;5063354;28;20033;-77
2022/05/08 02:47:31;;;;;;;5.93;4.72;;;;;;;31.23;22.68;98690.19;5062140;28;20597;-77
2022/05/08 02:49:57;;;;;;;6.10;4.35;;;;;;;31.47;22.45;98690.44;5063160;28;20024;-77
2022/05/08 02:52:23;;;;;;;8.30;4.88;;;;;;;31.53;22.15;98684.94;5060969;28;20405;-77
2022/05/08 02:54:49;;;;;;;6.22;4.80;;;;;;;31.56;21.95;98690.47;5061225;28;20052;-77
2022/05/08 03:00:07;;;;;;;6.03;4.53;;;;;;;31.69;22.19;98696.81;5062603;28;20059;-77
2022/05/08 03:02:34;;;;;;;5.82;4.97;;;;;;;31.50;22.35;98698.03;5059202;28;20040;-77
2022/05/08 03:05:02;;;;;;;8.82;5.07;;;;;;;31.33;22.62;98697.50;5060027;28;20031;-77
2022/05/08 03:07:29;;;;;;;6.10;4.70;;;;;;;30.88;23.13;98690.84;5059005;28;20050;-77
2022/05/08 03:09:55;;;;;;;7.40;5.47;;;;;;;30.69;23.67;98698.47;5060971;28;20119;-77
2022/05/08 03:12:21;;;;;;;7.55;5.30;;;;;;;30.54;23.39;98705.94;5049610;28;20513;-77
2022/05/08 03:14:47;;;;;;;7.63;5.88;;;;;;;30.55;23.88;98702.63;5047612;28;20502;-77
2022/05/08 03:17:13;;;;;;;8.93;5.80;;;;;;;30.57;23.88;98693.69;5048592;28;20505;-77
2022/05/08 03:19:39;;;;;;;6.03;4.97;;;;;;;30.70;23.75;98698.00;5049762;28;20043;-77
2022/05/08 03:22:06;;;;;;;5.53;4.70;;;;;;;30.79;23.74;98697.25;5047967;28;20041;-77
2022/05/08 03:24:32;;;;;;;6.53;4.45;;;;;;;30.70;23.56;98695.16;5046912;28;21813;-77
2022/05/08 03:26:58;;;;;;;5.28;4.43;;;;;;;30.91;23.22;98698.44;5045514;28;20251;-77
2022/05/08 03:29:26;;;;;;;5.57;4.45;;;;;;;31.22;22.75;98690.69;5043426;28;20051;-77
2022/05/08 03:31:55;;;;;;;6.03;4.50;;;;;;;31.55;22.54;98693.78;5045642;28;20037;-77
2022/05/08 03:34:21;;;;;;;6.90;4.50;;;;;;;31.63;22.04;98700.72;5052108;28;20046;-77
2022/05/08 03:36:47;;;;;;;4.90;3.53;;;;;;;31.70;22.15;98694.72;5059666;28;20063;-79
2022/05/08 03:39:13;;;;;;;4.95;3.90;;;;;;;31.71;22.15;98702.78;5060453;28;20036;-79
2022/05/08 03:41:39;;;;;;;8.40;4.22;;;;;;;31.62;22.20;98699.16;5059027;28;20056;-79
2022/05/08 03:44:06;;;;;;;6.43;3.90;;;;;;;31.39;22.54;98697.66;5059636;28;20047;-79
2022/05/08 03:46:32;;;;;;;5.70;4.15;;;;;;;31.42;22.42;98705.22;5058379;28;20117;-79
2022/05/08 03:48:58;;;;;;;5.47;4.15;;;;;;;31.66;22.05;98694.09;5061621;28;20036;-79
2022/05/08 03:51:24;;;;;;;6.60;3.97;;;;;;;31.90;22.12;98706.44;5061747;28;20044;-77
2022/05/08 03:53:50;;;;;;;7.05;4.22;;;;;;;32.01;22.07;98701.91;5055924;28;20040;-77
2022/05/08 03:56:16;;;;;;;4.95;3.95;;;;;;;32.08;22.01;98707.25;5058611;28;20025;-78
2022/05/08 03:58:42;;;;;;;4.90;4.25;;;;;;;31.85;22.47;98702.19;5062649;28;20107;-79
2022/05/08 04:01:09;;;;;;;5.22;3.63;;;;;;;31.34;22.69;98706.78;5061123;28;20032;-79
2022/05/08 04:03:36;;;;;;;6.40;3.83;;;;;;;31.11;23.19;98704.53;5060975;28;20039;-79
2022/05/08 04:06:05;;;;;;;5.07;4.30;;;;;;;31.15;23.08;98710.84;5064892;28;20044;-76
2022/05/08 04:08:32;;;;;;;5.68;3.95;;;;;;;31.25;22.99;98712.44;5060638;28;20393;-79
2022/05/08 04:10:58;;;;;;;5.40;4.38;;;;;;;31.37;23.01;98708.69;5062804;28;20035;-79
2022/05/08 04:13:25;;;;;;;5.18;4.03;;;;;;;31.73;22.10;98725.03;5060300;28;20607;-79
2022/05/08 04:18:35;;;;;;;7.03;4.57;;;;;;;32.03;22.08;98724.13;5064201;28;20436;-79
2022/05/08 04:21:02;;;;;;;5.50;4.07;;;;;;;31.84;22.39;98719.66;5064631;28;20493;-79
2022/05/08 04:26:12;;;;;;;6.78;4.22;;;;;;;32.06;22.00;98721.16;5067236;28;20063;-79
2022/05/08 04:28:38;;;;;;;3.55;3.22;;;;;;;32.33;21.58;98725.22;5067065;28;20421;-79
2022/05/08 04:31:04;;;;;;;4.82;3.60;;;;;;;32.48;21.41;98724.13;5064656;28;20106;-77
2022/05/08 04:33:30;;;;;;;4.32;3.83;;;;;;;32.61;21.31;98726.78;5066543;28;20036;-77
2022/05/08 04:35:56;;;;;;;7.35;3.97;;;;;;;32.68;21.57;98729.28;5064345;28;20021;-77
2022/05/08 04:38:22;;;;;;;4.28;3.80;;;;;;;31.63;23.05;98735.59;5065573;28;20112;-77
2022/05/08 04:40:49;;;;;;;5.65;4.13;;;;;;;30.90;23.85;98728.84;5060510;28;20044;-77
2022/05/08 04:43:15;;;;;;;6.05;4.32;;;;;;;30.87;23.63;98735.44;5053016;28;20016;-76
2022/05/08 04:45:41;;;;;;;5.95;4.38;;;;;;;30.99;23.35;98736.63;5065561;28;21206;-77
2022/05/08 04:48:07;;;;;;;5.63;4.45;;;;;;;30.94;23.63;98737.22;5063731;28;20024;-77
2022/05/08 04:50:33;;;;;;;7.00;4.25;;;;;;;30.93;23.86;98744.94;5067630;28;20089;-77
2022/05/08 04:52:59;;;;;;;5.60;4.20;;;;;;;31.30;23.62;98746.66;5062191;28;20048;-77
2022/05/08 04:55:26;;;;;;;7.63;5.30;;;;;;;31.67;23.06;98739.06;5062913;28;20035;-77
2022/05/08 04:57:52;;;;;;;6.65;4.72;;;;;;;31.46;23.38;98742.03;5060622;28;20043;-77
2022/05/08 05:00:18;;;;;;;5.40;4.80;;;;;;;31.41;23.26;98747.00;5064764;28;20166;-77
2022/05/08 05:02:45;;;;;;;7.55;5.78;;;;;;;31.33;23.51;98751.41;5064107;28;20028;-77
2022/05/08 05:05:11;;;;;;;4.65;3.85;;;;;;;31.30;23.65;98752.34;5061719;28;20100;-77
2022/05/08 05:07:40;;;;;;;6.22;4.35;;;;;;;31.45;23.28;98761.09;5065577;28;20112;-78
2022/05/08 05:10:10;;;;;;;7.13;5.03;;;;;;;31.98;22.81;98761.69;5066742;28;20028;-78
2022/05/08 05:12:37;;;;;;;4.73;3.93;;;;;;;32.27;22.49;98764.09;5063585;28;20044;-78
2022/05/08 05:15:07;;;;;;;6.70;4.15;;;;;;;32.15;22.35;98762.97;5061965;28;20036;-77
2022/05/08 05:17:33;;;;;;;6.73;5.30;;;;;;;31.89;23.29;98764.50;5068527;28;20039;-78
2022/05/08 05:19:59;;;;;;;6.30;5.15;;;;;;;31.56;23.48;98761.44;5065079;28;20374;-77
2022/05/08 05:22:25;;;;;;;7.43;4.82;;;;;;;31.33;24.21;98759.13;5063024;28;20044;-78
2022/05/08 05:24:51;;;;;;;6.20;4.13;;;;;;;31.21;24.32;98765.69;5066825;28;20085;-77
2022/05/08 05:27:18;;;;;;;6.18;4.53;;;;;;;31.49;23.78;98760.94;5049761;28;20402;-78
2022/05/08 05:29:44;;;;;;;5.43;4.25;;;;;;;31.74;23.79;98763.53;5065295;28;20098;-78
2022/05/08 05:32:10;;;;;;;7.43;4.78;;;;;;;31.63;24.09;98766.03;5064147;28;20637;-77
2022/05/08 05:34:37;;;;;;;4.88;4.30;;;;;;;31.40;24.33;98781.53;5064165;28;20036;-77
2022/05/08 05:37:03;;;;;;;5.70;4.15;;;;;;;31.30;24.39;98769.38;5067361;28;20032;-77
2022/05/08 05:39:29;;;;;;;7.78;4.97;;;;;;;31.35;24.17;98771.59;5067365;28;20044;-77
2022/05/08 05:41:55;;;;;;;6.18;3.97;;;;;;;31.76;23.90;98767.50;5068159;28;20047;-77
2022/05/08 05:44:21;;;;;;;4.80;3.78;;;;;;;31.97;23.46;98777.19;5063603;28;20045;-77
2022/05/08 05:49:31;;;;;;;5.15;4.18;;;;;;;31.83;23.80;98775.72;5061219;28;20508;-78
2022/05/08 05:51:58;;;;;;;5.05;4.00;;;;;;;31.73;23.58;98779.78;5056696;28;20044;-79
2022/05/08 05:54:25;;;;;;;4.78;3.50;;;;;;;32.09;23.59;98779.84;5060372;28;20071;-77
2022/05/08 05:56:51;;;;;;;3.67;3.08;;;;;;;32.67;22.49;98781.78;5061166;28;20093;-77
2022/05/08 05:59:17;;;;;;;4.43;3.08;;;;;;;33.09;22.19;98779.81;5063387;28;20371;-77
2022/05/08 06:01:44;;;;;;;5.00;3.33;;;;;;;33.40;21.77;98782.34;5057493;28;20550;-77
2022/05/08 06:04:10;;;;;;;3.53;3.22;;;;;;;33.56;22.01;98781.22;5062074;28;20447;-78
2022/05/08 06:06:36;;;;;;;3.90;3.28;;;;;;;33.66;21.52;98783.50;5061252;28;20036;-78
2022/05/08 06:09:03;;;;;;;4.32;3.08;;;;;;;33.72;21.46;98787.28;5067958;28;20059;-77
2022/05/08 06:11:29;;;;;;;5.00;3.60;;;;;;;33.47;21.58;98778.38;5062501;28;21565;-76
2022/05/08 06:13:55;;;;;;;3.45;3.00;;;;;;;33.23;21.77;98778.31;5062376;28;20052;-77
2022/05/08 06:16:21;;;;;;;5.13;3.97;;;;;;;32.74;22.27;98784.28;5060393;28;20068;-79
2022/05/08 06:18:47;;;;;;;4.32;3.28;;;;;;;32.40;22.80;98787.44;5064484;28;20034;-78
2022/05/08 06:21:13;;;;;;;4.43;3.47;;;;;;;32.45;23.14;98783.97;5061696;28;20040;-78
2022/05/08 06:23:39;;;;;;;5.53;3.70;;;;;;;32.44;22.72;98793.78;5062386;28;20464;-78
2022/05/08 06:26:05;;;;;;;3.72;3.15;;;;;;;32.44;22.81;98786.00;5064456;28;20492;-77
2022/05/08 06:28:31;;;;;;;5.10;2.65;;;;;;;32.14;22.98;98791.88;5042437;28;20507;-76
2022/05/08 06:30:58;;;;;;;3.45;2.45;;;;;;;31.98;23.30;98790.91;5060575;28;20037;-75
2022/05/08 06:33:24;;;;;;;3.42;2.85;;;;;;;32.01;23.03;98792.81;5057452;28;20035;-74
2022/05/08 06:35:50;;;;;;;3.65;3.05;;;;;;;32.01;23.29;98786.31;5042265;28;20029;-75
2022/05/08 06:38:17;;;;;;;3.65;2.63;;;;;;;32.05;22.98;98793.44;5061026;28;20028;-76
2022/05/08 06:40:45;;;;;;;3.00;2.35;;;;;;;32.17;23.10;98791.69;5062185;28;20422;-79
2022/05/08 06:43:11;;;;;;;3.00;2.70;;;;;;;32.26;23.30;98796.59;5062313;28;20020;-78
2022/05/08 06:45:37;;;;;;;3.25;2.90;;;;;;;32.60;23.34;98791.41;5061919;28;20059;-77
2022/05/08 06:48:05;;;;;;;4.38;3.35;;;;;;;33.18;22.42;98794.00;5064204;28;20094;-76
2022/05/08 06:50:33;;;;;;;2.65;2.30;;;;;;;33.65;22.38;98792.56;5043301;28;20036;-79
2022/05/08 06:52:59;;;;;;;3.22;2.60;;;;;;;34.00;21.98;98793.59;5062944;28;20038;-80
2022/05/08 06:55:25;;;;;;;3.60;2.42;;;;;;;34.30;21.58;98805.91;5043778;28;20044;-80
2022/05/08 06:57:51;;;;;;;3.20;2.47;;;;;;;34.18;21.91;98796.34;5061323;28;20029;-79
2022/05/08 07:03:04;;;;;;;2.72;2.47;;;;;;;34.25;21.46;98804.53;5063497;28;20125;-79
2022/05/08 07:05:31;;;;;;;4.65;3.53;;;;;;;33.72;22.45;98797.91;5063172;28;20043;-79
2022/05/08 07:07:57;;;;;;;2.58;2.38;;;;;;;33.32;22.98;98798.22;5063041;28;20392;-80
2022/05/08 07:10:23;;;;;;;3.45;2.80;;;;;;;33.03;23.50;98795.94;5065562;28;20036;-79
2022/05/08 07:12:49;;;;;;;3.75;2.97;;;;;;;32.85;23.97;98789.47;5062559;28;20154;-80
2022/05/08 07:15:15;;;;;;;2.85;2.63;;;;;;;32.81;23.75;98794.53;5062669;28;20067;-79
2022/05/08 07:17:42;;;;;;;3.53;2.38;;;;;;;33.27;23.98;98798.84;5059773;28;20409;-80
2022/05/08 07:20:09;;;;;;;2.85;2.45;;;;;;;33.63;22.94;98786.56;5059294;28;20489;-80
2022/05/08 07:22:35;;;;;;;2.33;2.08;;;;;;;33.96;22.85;98798.66;5056923;28;20094;-79
2022/05/08 07:25:02;;;;;;;2.50;2.28;;;;;;;34.46;22.34;98797.69;5064771;28;20115;-78
2022/05/08 07:27:29;;;;;;;2.67;2.17;;;;;;;34.75;21.67;98797.75;5061997;28;20024;-79
2022/05/08 07:29:56;;;;;;;2.15;1.95;;;;;;;35.09;21.98;98793.47;5062663;28;20032;-79
2022/05/08 07:32:22;;;;;;;2.35;1.98;;;;;;;35.42;21.40;98796.09;5061589;28;20043;-81
2022/05/08 07:37:33;;;;;;;3.42;2.08;;;;;;;35.57;20.20;98802.56;5061165;28;20051;-79
2022/05/08 07:39:59;;;;;;;4.00;2.35;;;;;;;35.27;21.63;98810.38;5064035;28;20029;-80
2022/05/08 07:42:25;;;;;;;3.15;2.15;;;;;;;35.46;20.98;98804.44;5062351;28;20040;-80
2022/05/08 07:44:51;;;;;;;2.30;2.10;;;;;;;35.59;21.22;98810.66;5055084;28;20033;-80
2022/05/08 07:47:17;;;;;;;2.78;1.92;;;;;;;35.80;21.56;98815.16;5055925;28;20040;-79
2022/05/08 07:49:43;;;;;;;2.22;1.95;;;;;;;36.01;20.79;98808.97;5062649;28;20559;-80
2022/05/08 07:52:09;;;;;;;5.30;1.98;;;;;;;35.99;20.99;98811.53;5061191;28;20697;-80
2022/05/08 07:54:35;;;;;;;2.63;1.92;;;;;;;35.95;20.36;98808.09;5063378;28;20033;-81
2022/05/08 07:57:01;;;;;;;2.58;2.15;;;;;;;35.88;20.45;98814.22;5065069;28;20036;-80
2022/05/08 07:59:27;;;;;;;3.53;2.50;;;;;;;35.54;20.65;98811.38;5061434;28;20032;-81
2022/05/08 08:01:53;;;;;;;2.58;1.98;;;;;;;35.59;20.71;98811.47;5062342;28;20323;-77
2022/05/08 08:04:19;;;;;;;2.03;1.83;;;;;;;35.55;20.55;98818.63;5060632;28;20036;-77
2022/05/08 08:06:46;;;;;;;5.13;1.75;;;;;;;35.49;20.72;98818.53;5071453;28;20036;-77
2022/05/08 08:09:12;;;;;;;2.75;2.00;;;;;;;35.59;20.38;98814.31;5065269;28;20036;-77
2022/05/08 08:11:39;;;;;;;2.72;2.53;;;;;;;35.38;20.57;98821.22;5063975;28;20040;-77
2022/05/08 08:14:05;;;;;;;2.85;2.00;;;;;;;35.37;20.89;98825.34;5063871;28;20082;-77
2022/05/08 08:16:31;;;;;;;1.75;1.60;;;;;;;35.63;20.87;98819.81;5062432;28;20060;-77
2022/05/08 08:18:58;;;;;;;2.10;1.90;;;;;;;35.05;20.35;98827.16;5063353;28;20037;-77
2022/05/08 08:21:24;;;;;;;2.42;2.22;;;;;;;34.60;21.71;98830.41;5062474;28;20036;-77
2022/05/08 08:23:51;;;;;;;3.60;1.98;;;;;;;34.11;21.37;98832.97;5043225;28;20045;-77
2022/05/08 08:26:17;;;;;;;2.20;2.00;;;;;;;34.05;21.64;98827.94;5063845;28;20090;-77
2022/05/08 08:28:44;;;;;;;2.75;2.00;;;;;;;34.42;21.81;98837.03;5065095;28;20028;-77
2022/05/08 08:31:10;;;;;;;1.60;1.50;;;;;;;34.83;21.64;98832.41;5042598;28;20075;-77
2022/05/08 08:33:41;;;;;;;3.85;2.42;;;;;;;35.23;20.92;98834.72;5064536;28;20589;-77
2022/05/08 08:36:08;;;;;;;;;;;;;;;35.14;20.67;98831.97;5066524;28;20040;-77
2022/05/08 08:38:35;;;;;;;4.32;2.08;;;;;;;34.98;21.06;98838.13;5066102;28;19969;-77
2022/05/08 08:41:04;;;;;;;2.72;1.95;;;;;;;35.17;21.21;98836.69;5068974;28;20020;-77
2022/05/08 08:47:42;;;;;;;2.67;2.47;;;;;;;35.22;20.60;98833.91;5063414;28;20032;-78
2022/05/08 08:49:27;;;;;;;2.72;2.47;;;;;;;35.04;20.88;98839.84;5064244;28;20137;-78
2022/05/08 08:51:53;;;;;;;2.33;2.13;;;;;;;35.43;20.88;98838.44;5065370;28;20504;-78
2022/05/08 08:54:21;;;;;;;2.75;2.00;;;;;;;35.33;20.46;98836.19;5063965;28;20041;-78
2022/05/08 08:56:48;;;;;;;2.47;2.05;;;;;;;35.22;20.34;98839.63;5064849;28;20054;-78
2022/05/08 08:59:14;;;;;;;3.05;2.58;;;;;;;35.23;20.95;98840.44;5063439;28;20032;-78
2022/05/08 09:01:44;;;;;;;2.58;2.35;;;;;;;35.59;20.19;98828.59;5061842;28;20032;-78
2022/05/08 09:04:12;;;;;;;1.95;1.85;;;;;;;35.98;19.81;98827.13;5046375;28;20036;-78
2022/05/08 09:06:45;;;;;;;2.05;1.85;;;;;;;36.00;19.95;98835.22;5062390;28;20044;-78
2022/05/08 09:09:22;;;;;;;1.83;1.73;;;;;;;35.97;19.96;98839.03;5061880;28;20029;-79
2022/05/08 09:11:48;;;;;;;1.65;1.55;;;;;;;35.97;19.41;98834.13;5062506;28;20048;-79
2022/05/08 09:14:27;;;;;;;2.30;1.85;;;;;;;35.95;19.51;98835.88;5062713;28;20052;-78
2022/05/08 09:16:54;;;;;;;1.92;1.38;;;;;;;36.02;20.00;98839.13;5064106;28;20033;-79
2022/05/08 09:19:36;;;;;;;1.80;1.60;;;;;;;36.18;18.97;98828.41;5067689;28;20063;-79
2022/05/08 09:22:03;;;;;;;1.70;1.55;;;;;;;35.61;19.69;98828.09;5064165;28;20123;-79
2022/05/08 09:24:30;;;;;;;2.30;1.98;;;;;;;35.01;20.06;98835.06;5071327;28;20485;-79
2022/05/08 09:27:13;;;;;;;4.07;1.73;;;;;;;34.68;20.32;98845.88;5065389;28;20163;-79
2022/05/08 09:29:40;;;;;;;1.92;1.73;;;;;;;35.09;20.55;98846.94;5063435;28;20059;-78
2022/05/08 09:32:07;;;;;;;1.50;1.30;;;;;;;35.60;19.69;98841.59;5060996;28;20052;-78
2022/05/08 09:34:57;;;;;;;2.45;1.90;;;;;;;35.66;18.92;98841.69;5061579;28;20032;-78
2022/05/08 09:37:24;;;;;;;1.93;1.50;;;;;;;35.68;19.82;98830.56;5048713;28;20857;-78
2022/05/08 09:39:51;;;;;;;2.67;1.45;;;;;;;35.84;19.16;98830.81;5059199;28;20036;-79
2022/05/08 09:42:37;;;;;;;1.77;1.67;;;;;;;35.33;19.98;98834.13;5039010;28;20055;-80
2022/05/08 09:45:07;;;;;;;2.25;1.90;;;;;;;35.43;19.59;98829.06;5061427;28;20913;-80
2022/05/08 09:47:49;;;;;;;1.80;1.52;;;;;;;35.81;20.17;98831.78;5058763;28;20031;-80
2022/05/08 09:50:16;;;;;;;1.98;1.85;;;;;;;36.09;19.02;98823.63;5065036;28;20417;-81
2022/05/08 09:52:45;;;;;;;2.42;1.50;;;;;;;36.06;19.26;98834.00;5068023;28;20385;-81
2022/05/08 09:55:13;;;;;;;1.50;1.40;;;;;;;36.26;19.13;98826.72;5061583;28;20127;-80
2022/05/08 09:57:39;;;;;;;1.50;1.40;;;;;;;36.54;18.92;98819.28;5045142;28;20490;-80
2022/05/08 10:00:07;;;;;;;1.65;1.40;;;;;;;36.62;18.57;98826.91;5065554;28;20644;-81
2022/05/08 10:02:35;;;;;;;1.30;1.20;;;;;;;36.50;19.31;98825.22;5061520;28;20464;-80
2022/05/08 10:05:02;;;;;;;1.25;1.15;;;;;;;36.55;18.87;98820.88;5064754;28;20028;-81
2022/05/08 10:07:29;;;;;;;1.40;1.20;;;;;;;36.82;18.97;98826.09;5061207;28;20113;-81
2022/05/08 10:15:32;;;;;;;1.15;1.08;;;;;;;36.01;18.69;98816.78;5061466;28;20398;-81
2022/05/08 10:18:27;;;;;;;1.70;1.13;;;;;;;36.17;18.06;98821.13;5065875;28;20497;-81
2022/05/08 10:21:07;;;;;;;1.40;1.30;;;;;;;35.86;19.42;98816.78;5065259;28;20039;-80
2022/05/08 10:23:37;;;;;;;1.15;1.15;;;;;;;36.26;19.51;98804.63;5061016;28;20036;-81
2022/05/08 10:26:20;;;;;;;1.40;1.30;;;;;;;36.26;18.73;98807.47;5058399;28;20078;-81
2022/05/08 10:29:13;;;;;;;1.55;1.45;;;;;;;36.25;19.81;98807.97;5064610;28;20032;-81
2022/05/08 10:31:51;;;;;;;0.98;0.98;;;;;;;36.64;19.54;98812.88;5060154;28;20904;-81
2022/05/08 10:34:31;;;;;;;1.95;1.20;;;;;;;36.95;19.17;98808.56;5064894;28;20029;-81
2022/05/08 10:37:13;;;;;;;1.10;1.00;;;;;;;36.73;17.56;98806.25;5062537;28;20043;-80
2022/05/08 10:39:48;;;;;;;1.00;1.00;;;;;;;36.83;18.68;98801.13;5059086;28;20364;-80
2022/05/08 10:42:29;;;;;;;0.93;0.93;;;;;;;37.09;18.97;98802.72;5057306;28;20032;-80
2022/05/08 10:45:02;;;;;;;2.47;0.80;;;;;;;37.43;17.76;98805.88;5066556;28;20063;-80
2022/05/08 10:47:37;;;;;;;1.05;0.95;;;;;;;37.52;17.99;98795.03;5060761;28;20089;-80
2022/05/08 10:50:10;;;;;;;0.85;0.85;;;;;;;37.57;17.96;98785.69;5060598;28;20101;-80
2022/05/08 10:52:44;;;;;;;1.30;1.10;;;;;;;37.49;18.31;98795.25;5054414;28;20101;-81
2022/05/08 10:55:12;;;;;;;1.10;1.00;;;;;;;37.72;18.07;98789.16;5060041;28;20037;-80
2022/05/08 10:57:39;;;;;;;1.65;1.10;;;;;;;37.83;17.31;98786.38;5056413;28;20033;-80
2022/05/08 11:00:14;;;;;;;1.33;1.10;;;;;;;37.32;18.70;98780.75;5062770;28;20040;-80
2022/05/08 11:02:47;;;;;;;1.92;1.10;;;;;;;37.29;19.87;98788.31;5068364;28;20085;-80
2022/05/08 11:05:17;;;;;;;1.23;1.10;;;;;;;37.63;18.77;98782.84;5059075;28;20089;-80
2022/05/08 11:07:53;;;;;;;1.02;0.93;;;;;;;37.72;18.17;98777.69;5060508;28;20037;-80
2022/05/08 11:10:27;;;;;;;1.20;1.10;;;;;;;37.56;18.47;98781.22;5060122;28;20703;-80
2022/05/08 11:12:56;;;;;;;1.33;1.23;;;;;;;37.53;17.63;98773.66;5058497;28;20064;-80
2022/05/08 11:15:23;;;;;;;1.30;1.20;;;;;;;37.79;17.43;98776.41;5060121;28;20078;-79
2022/05/08 11:18:02;;;;;;;1.23;1.13;;;;;;;38.12;17.23;98782.34;5063642;28;20068;-80
2022/05/08 11:20:28;;;;;;;1.20;1.10;;;;;;;38.29;17.28;98777.50;5058748;28;20035;-79
2022/05/08 11:22:58;;;;;;;0.93;0.90;;;;;;;38.42;17.25;98777.81;5058615;28;21734;-79
2022/05/08 11:25:24;;;;;;;1.33;1.23;;;;;;;38.36;17.48;98774.16;5061360;28;20090;-79
2022/05/08 11:27:55;;;;;;;1.80;0.90;;;;;;;38.32;16.96;98765.00;5060635;28;20037;-79
2022/05/08 11:30:28;;;;;;;1.45;1.25;;;;;;;38.11;17.91;98766.47;5058185;28;20071;-79
2022/05/08 11:38:50;;;;;;;;;;;;;;;37.37;16.85;98757.91;5057125;28;20047;-79
2022/05/08 11:41:21;;;;;;;1.00;0.90;;;;;;;37.50;17.11;98756.72;5061981;28;20269;-79
2022/05/08 11:43:55;;;;;;;0.98;0.88;;;;;;;37.31;15.89;98754.22;5062112;28;20032;-79
2022/05/08 11:46:37;;;;;;;1.25;1.00;;;;;;;37.31;15.97;98745.63;5058131;28;20119;-78
2022/05/08 11:49:19;;;;;;;1.25;1.10;;;;;;;37.08;15.83;98763.91;5058333;28;20547;-79
2022/05/08 11:51:49;;;;;;;1.23;0.90;;;;;;;36.84;16.81;98760.53;5061071;28;20091;-79
2022/05/08 11:54:27;;;;;;;1.17;1.08;;;;;;;36.92;17.46;98758.03;5059277;28;20033;-79
2022/05/08 11:57:11;;;;;;;1.27;1.17;;;;;;;37.15;16.67;98751.22;5059320;28;20024;-78
2022/05/08 11:59:37;;;;;;;1.10;1.00;;;;;;;37.06;17.88;98751.41;5056980;28;20146;-79
2022/05/08 12:02:03;;;;;;;1.17;1.00;;;;;;;37.04;16.77;98748.28;5055661;28;20077;-79
2022/05/08 12:04:33;;;;;;;1.13;1.02;;;;;;;37.22;16.34;98748.69;5058235;28;20040;-79
2022/05/08 12:07:05;;;;;;;1.30;1.20;;;;;;;37.22;15.99;98750.75;5055796;28;20035;-79
2022/05/08 12:09:36;;;;;;;1.33;1.02;;;;;;;37.16;17.44;98750.69;5059449;28;20325;-80